createdAt,value
2018-03-27T00:02:12.374Z,23.92
2018-03-27T00:04:39.829Z,21.90
2018-03-27T00:07:07.302Z,22.58
2018-03-27T00:09:34.771Z,23.30
2018-03-27T00:12:02.249Z,22.98
2018-03-27T00:14:29.743Z,20.45
2018-03-27T00:16:57.209Z,22.95
2018-03-27T00:19:25.437Z,21.25
2018-03-27T00:21:52.914Z,22.25
2018-03-27T00:24:20.398Z,22.90
2018-03-27T00:26:59.693Z,25.27
2018-03-27T00:29:38.857Z,22.67
2018-03-27T00:32:18.101Z,22.90
2018-03-27T00:34:57.942Z,21.58
2018-03-27T00:37:38.146Z,21.70
2018-03-27T00:40:17.414Z,21.45
2018-03-27T00:42:51.495Z,20.25
2018-03-27T00:45:18.998Z,24.00
2018-03-27T00:47:46.472Z,23.40
2018-03-27T00:50:13.928Z,22.45
2018-03-27T00:52:41.410Z,23.12
2018-03-27T00:55:08.870Z,23.33
2018-03-27T00:57:36.354Z,24.33
2018-03-27T01:00:03.831Z,24.23
2018-03-27T01:02:31.306Z,25.33
2018-03-27T01:05:04.341Z,24.45
2018-03-27T01:07:31.794Z,24.00
2018-03-27T01:09:59.266Z,25.15
2018-03-27T01:12:26.743Z,24.25
2018-03-27T01:14:54.205Z,27.40
2018-03-27T01:17:21.666Z,24.77
2018-03-27T01:19:49.133Z,23.62
2018-03-27T01:22:17.378Z,26.37
2018-03-27T01:24:44.854Z,25.40
2018-03-27T01:27:12.312Z,29.52
2018-03-27T01:29:40.563Z,28.75
2018-03-27T01:32:08.038Z,26.45
2018-03-27T01:34:35.502Z,25.33
2018-03-27T01:37:02.956Z,23.02
2018-03-27T01:39:30.676Z,24.52
2018-03-27T01:41:58.140Z,23.60
2018-03-27T01:44:25.637Z,22.90
2018-03-27T01:46:53.077Z,21.30
2018-03-27T01:49:20.563Z,24.85
2018-03-27T01:51:48.811Z,24.15
2018-03-27T01:54:16.288Z,24.15
2018-03-27T01:56:43.770Z,22.92
2018-03-27T01:59:11.269Z,22.90
2018-03-27T02:01:38.755Z,21.73
2018-03-27T02:04:07.018Z,23.08
2018-03-27T02:06:34.537Z,21.67
2018-03-27T02:09:02.774Z,22.00
2018-03-27T02:11:35.855Z,21.02
2018-03-27T02:14:08.897Z,19.65
2018-03-27T02:16:42.051Z,22.15
2018-03-27T02:19:14.971Z,20.58
2018-03-27T02:21:41.975Z,22.20
2018-03-27T02:24:11.137Z,21.27
2018-03-27T02:26:38.677Z,23.50
2018-03-27T02:29:06.176Z,20.33
2018-03-27T02:31:33.629Z,22.40
2018-03-27T02:34:01.183Z,21.08
2018-03-27T02:36:28.646Z,20.60
2018-03-27T02:38:56.141Z,19.98
2018-03-27T02:41:23.642Z,21.00
2018-03-27T02:43:51.126Z,22.58
2018-03-27T02:46:18.599Z,20.20
2018-03-27T02:48:46.859Z,20.20
2018-03-27T02:51:14.348Z,21.45
2018-03-27T02:53:41.870Z,20.23
2018-03-27T02:56:09.395Z,20.00
2018-03-27T02:58:36.858Z,18.00
2018-03-27T03:01:04.358Z,20.37
2018-03-27T03:03:31.878Z,19.50
2018-03-27T03:05:59.340Z,18.77
2018-03-27T03:08:26.789Z,20.55
2018-03-27T03:10:54.269Z,18.55
2018-03-27T03:13:21.715Z,21.80
2018-03-27T03:15:49.174Z,19.87
2018-03-27T03:18:16.654Z,21.27
2018-03-27T03:20:44.111Z,21.30
2018-03-27T03:23:11.570Z,18.55
2018-03-27T03:25:39.041Z,19.25
2018-03-27T03:28:06.486Z,19.65
2018-03-27T03:30:33.958Z,19.58
2018-03-27T03:33:01.439Z,18.65
2018-03-27T03:35:29.678Z,18.80
2018-03-27T03:37:57.134Z,20.35
2018-03-27T03:40:24.589Z,18.87
2018-03-27T03:42:52.821Z,19.48
2018-03-27T03:45:20.282Z,18.60
2018-03-27T03:47:47.764Z,18.92
2018-03-27T03:50:15.206Z,18.55
2018-03-27T03:52:42.698Z,18.73
2018-03-27T03:55:10.158Z,19.27
2018-03-27T03:57:37.644Z,19.50
2018-03-27T04:00:05.121Z,18.17
2018-03-27T04:02:32.582Z,19.45
2018-03-27T04:05:00.064Z,21.23
2018-03-27T04:07:28.322Z,19.40
2018-03-27T04:09:55.799Z,19.77
2018-03-27T04:12:24.053Z,21.02
2018-03-27T04:14:51.502Z,21.30
2018-03-27T04:17:18.988Z,21.83
2018-03-27T04:19:47.224Z,23.95
2018-03-27T04:22:14.716Z,24.83
2018-03-27T04:24:42.942Z,26.85
2018-03-27T04:27:10.447Z,23.45
2018-03-27T04:29:37.982Z,25.83
2018-03-27T04:32:05.474Z,27.33
2018-03-27T04:34:33.716Z,26.80
2018-03-27T04:37:01.181Z,27.50
2018-03-27T04:39:28.648Z,25.58
2018-03-27T04:41:56.171Z,28.40
2018-03-27T04:44:23.673Z,28.05
2018-03-27T04:46:51.945Z,28.90
2018-03-27T04:49:20.199Z,30.60
2018-03-27T04:51:47.682Z,29.05
2018-03-27T04:54:15.187Z,27.95
2018-03-27T04:56:42.653Z,30.92
2018-03-27T04:59:10.202Z,33.22
2018-03-27T05:01:37.670Z,30.62
2018-03-27T05:04:05.885Z,28.35
2018-03-27T05:06:33.384Z,30.55
2018-03-27T05:09:00.874Z,30.92
2018-03-27T05:11:28.350Z,32.40
2018-03-27T05:13:55.831Z,33.75
2018-03-27T05:16:23.334Z,34.25
2018-03-27T05:18:50.838Z,29.77
2018-03-27T05:21:19.102Z,34.50
2018-03-27T05:23:46.669Z,31.20
2018-03-27T05:29:04.675Z,30.00
2018-03-27T05:31:32.150Z,29.52
2018-03-27T05:33:59.643Z,33.05
2018-03-27T05:36:27.911Z,32.33
2018-03-27T05:38:56.197Z,33.30
2018-03-27T05:41:24.443Z,32.40
2018-03-27T05:43:51.946Z,30.92
2018-03-27T05:46:19.461Z,35.63
2018-03-27T05:48:47.767Z,34.67
2018-03-27T05:51:16.016Z,31.12
2018-03-27T05:53:44.291Z,35.17
2018-03-27T05:56:11.772Z,34.80
2018-03-27T05:58:39.276Z,37.00
2018-03-27T06:01:06.808Z,35.88
2018-03-27T06:03:36.981Z,36.10
2018-03-27T06:06:05.315Z,35.28
2018-03-27T06:08:32.848Z,37.13
2018-03-27T06:11:01.105Z,36.47
2018-03-27T06:13:29.402Z,38.72
2018-03-27T06:15:56.889Z,35.85
2018-03-27T06:18:24.410Z,35.55
2018-03-27T06:20:52.107Z,38.13
2018-03-27T06:23:19.608Z,36.85
2018-03-27T06:25:47.152Z,35.58
2018-03-27T06:28:14.648Z,36.10
2018-03-27T06:30:42.162Z,39.15
2018-03-27T06:33:09.734Z,40.40
2018-03-27T06:35:37.403Z,38.45
2018-03-27T06:38:05.049Z,35.58
2018-03-27T06:40:32.534Z,37.97
2018-03-27T06:43:00.023Z,40.00
2018-03-27T06:45:27.500Z,36.22
2018-03-27T06:47:55.011Z,33.58
2018-03-27T06:50:23.270Z,36.83
2018-03-27T06:52:50.838Z,33.80
2018-03-27T06:55:18.277Z,31.77
2018-03-27T06:57:45.875Z,31.50
2018-03-27T07:00:13.403Z,32.35
2018-03-27T07:02:40.871Z,32.83
2018-03-27T07:05:08.590Z,31.20
2018-03-27T07:07:36.123Z,31.98
2018-03-27T07:10:03.739Z,30.20
2018-03-27T07:12:31.259Z,30.62
2018-03-27T07:14:58.928Z,31.15
2018-03-27T07:17:26.429Z,32.75
2018-03-27T07:19:53.935Z,28.98
2018-03-27T07:22:21.422Z,30.33
2018-03-27T07:24:48.874Z,29.20
2018-03-27T07:27:16.454Z,30.45
2018-03-27T07:29:43.926Z,29.27
2018-03-27T07:32:11.426Z,28.08
2018-03-27T07:34:38.959Z,31.70
2018-03-27T07:37:06.457Z,30.83
2018-03-27T07:39:33.984Z,31.85
2018-03-27T07:42:01.524Z,30.50
2018-03-27T07:44:30.914Z,28.90
2018-03-27T07:46:58.490Z,31.35
2018-03-27T07:49:26.840Z,32.40
2018-03-27T07:51:55.410Z,27.37
2018-03-27T07:54:23.027Z,29.58
2018-03-27T07:56:50.623Z,27.40
2018-03-27T07:59:18.116Z,28.70
2018-03-27T08:01:45.589Z,30.20
2018-03-27T08:04:13.193Z,28.17
2018-03-27T08:06:40.717Z,27.58
2018-03-27T08:09:08.340Z,26.20
2018-03-27T08:11:35.838Z,25.83
2018-03-27T08:14:03.297Z,25.92
2018-03-27T08:16:30.946Z,24.92
2018-03-27T08:19:01.512Z,23.55
2018-03-27T08:21:31.357Z,23.58
2018-03-27T08:24:01.032Z,23.40
2018-03-27T08:26:28.721Z,22.73
2018-03-27T08:29:00.363Z,21.58
2018-03-27T08:31:29.559Z,24.58
2018-03-27T08:33:58.072Z,23.12
2018-03-27T08:36:25.872Z,21.52
2018-03-27T08:38:53.347Z,20.50
2018-03-27T08:41:20.995Z,20.70
2018-03-27T08:43:48.679Z,21.90
2018-03-27T08:46:17.329Z,21.80
2018-03-27T08:48:47.497Z,21.20
2018-03-27T08:51:15.183Z,20.50
2018-03-27T08:53:43.595Z,19.02
2018-03-27T08:56:15.967Z,23.15
2018-03-27T08:58:43.720Z,20.52
2018-03-27T09:01:12.782Z,19.50
2018-03-27T09:03:41.161Z,19.60
2018-03-27T09:06:08.725Z,18.90
2018-03-27T09:08:36.959Z,17.77
2018-03-27T09:11:04.544Z,18.55
2018-03-27T09:13:32.133Z,19.17
2018-03-27T09:15:59.842Z,19.10
2018-03-27T09:18:27.443Z,20.30
2018-03-27T09:20:56.118Z,20.62
2018-03-27T09:23:24.536Z,19.27
2018-03-27T09:25:52.938Z,18.12
2018-03-27T09:28:20.545Z,19.45
2018-03-27T09:30:48.076Z,19.80
2018-03-27T09:33:15.792Z,20.75
2018-03-27T09:35:43.287Z,21.92
2018-03-27T09:38:10.804Z,19.67
2018-03-27T09:40:38.363Z,21.25
2018-03-27T09:43:06.627Z,19.25
2018-03-27T09:45:34.963Z,18.08
2018-03-27T09:48:02.386Z,17.48
2018-03-27T09:50:29.962Z,19.05
2018-03-27T09:52:57.485Z,18.95
2018-03-27T09:55:25.044Z,21.70
2018-03-27T09:57:52.685Z,21.42
2018-03-27T10:00:25.971Z,20.65
2018-03-27T10:02:53.477Z,20.75
2018-03-27T10:05:20.982Z,19.67
2018-03-27T10:07:48.579Z,19.65
2018-03-27T10:10:17.088Z,18.50
2018-03-27T10:12:44.627Z,17.30
2018-03-27T10:15:12.119Z,18.00
2018-03-27T10:17:39.632Z,17.83
2018-03-27T10:20:07.890Z,15.02
2018-03-27T10:22:35.399Z,15.25
2018-03-27T10:25:02.879Z,17.30
2018-03-27T10:27:30.373Z,13.88
2018-03-27T10:29:57.899Z,12.60
2018-03-27T10:32:25.430Z,11.23
2018-03-27T10:34:52.951Z,10.35
2018-03-27T10:37:20.455Z,13.52
2018-03-27T10:39:48.704Z,12.60
2018-03-27T10:42:16.219Z,13.25
2018-03-27T10:44:43.738Z,13.43
2018-03-27T10:47:11.266Z,12.13
2018-03-27T10:49:39.532Z,11.80
2018-03-27T10:52:07.016Z,10.80
2018-03-27T10:54:34.518Z,10.20
2018-03-27T10:57:02.012Z,9.15
2018-03-27T10:59:29.518Z,9.25
2018-03-27T11:01:57.047Z,9.55
2018-03-27T11:04:24.515Z,9.70
2018-03-27T11:06:52.053Z,10.77
2018-03-27T11:09:19.559Z,9.00
2018-03-27T11:11:47.150Z,6.93
2018-03-27T11:14:15.392Z,7.80
2018-03-27T11:16:42.908Z,10.10
2018-03-27T11:19:10.396Z,11.40
2018-03-27T11:21:39.220Z,9.68
2018-03-27T11:24:06.736Z,8.60
2018-03-27T11:26:34.266Z,7.70
2018-03-27T11:29:02.661Z,9.45
2018-03-27T11:31:30.351Z,7.87
2018-03-27T11:33:58.107Z,7.50
2018-03-27T11:36:25.651Z,9.63
2018-03-27T11:38:53.193Z,8.75
2018-03-27T11:41:20.748Z,7.82
2018-03-27T11:43:48.289Z,8.52
2018-03-27T11:46:16.662Z,7.90
2018-03-27T11:48:44.172Z,6.32
2018-03-27T11:51:11.664Z,6.47
2018-03-27T11:53:39.168Z,5.90
2018-03-27T11:56:06.710Z,6.43
2018-03-27T11:58:34.183Z,6.12
2018-03-27T12:01:01.697Z,6.70
2018-03-27T12:03:29.217Z,6.30
2018-03-27T12:05:56.755Z,6.75
2018-03-27T12:08:24.481Z,6.45
2018-03-27T12:10:52.176Z,6.90
2018-03-27T12:13:19.699Z,5.25
2018-03-27T12:15:47.302Z,5.20
2018-03-27T12:18:14.849Z,5.12
2018-03-27T12:20:42.439Z,5.03
2018-03-27T12:23:10.070Z,5.22
2018-03-27T12:25:37.699Z,5.60
2018-03-27T12:28:05.273Z,5.65
2018-03-27T12:30:32.754Z,5.32
2018-03-27T12:33:00.414Z,5.05
2018-03-27T12:35:27.912Z,4.85
2018-03-27T12:37:55.418Z,4.68
2018-03-27T12:40:23.670Z,4.60
2018-03-27T12:42:51.371Z,4.53
2018-03-27T12:45:19.019Z,3.70
2018-03-27T12:47:47.484Z,4.25
2018-03-27T12:50:14.949Z,3.33
2018-03-27T12:52:43.270Z,3.75
2018-03-27T12:55:10.761Z,4.10
2018-03-27T12:57:38.344Z,4.00
2018-03-27T13:00:06.600Z,3.92
2018-03-27T13:02:34.136Z,4.12
2018-03-27T13:05:01.638Z,3.90
2018-03-27T13:07:29.873Z,3.15
2018-03-27T13:09:57.462Z,2.95
2018-03-27T13:12:25.736Z,2.25
2018-03-27T13:14:53.195Z,1.87
2018-03-27T13:17:21.474Z,2.53
2018-03-27T13:19:49.093Z,2.30
2018-03-27T13:22:16.570Z,3.58
2018-03-27T13:24:44.549Z,2.87
2018-03-27T13:27:12.109Z,3.60
2018-03-27T13:29:39.587Z,4.03
2018-03-27T13:32:07.082Z,3.53
2018-03-27T13:34:34.550Z,4.22
2018-03-27T13:37:02.014Z,4.03
2018-03-27T13:39:29.521Z,3.28
2018-03-27T13:41:56.985Z,3.53
2018-03-27T13:44:24.471Z,3.60
2018-03-27T13:46:52.044Z,3.72
2018-03-27T13:49:19.578Z,4.60
2018-03-27T13:51:47.105Z,5.03
2018-03-27T13:54:14.600Z,4.97
2018-03-27T13:56:42.071Z,4.50
2018-03-27T13:59:09.565Z,4.35
2018-03-27T14:01:38.876Z,5.07
2018-03-27T14:04:07.167Z,5.82
2018-03-27T14:06:34.654Z,4.40
2018-03-27T14:09:02.162Z,4.75
2018-03-27T14:11:30.440Z,4.62
2018-03-27T14:13:58.692Z,3.75
2018-03-27T14:16:26.250Z,5.03
2018-03-27T14:18:53.786Z,6.93
2018-03-27T14:21:21.251Z,5.75
2018-03-27T14:23:48.822Z,5.82
2018-03-27T14:26:17.065Z,5.70
2018-03-27T14:28:44.581Z,5.20
2018-03-27T14:31:12.805Z,5.18
2018-03-27T14:33:40.288Z,6.47
2018-03-27T14:36:07.960Z,6.37
2018-03-27T14:38:36.247Z,6.90
2018-03-27T14:41:04.477Z,7.32
2018-03-27T14:43:31.931Z,7.05
2018-03-27T14:45:59.395Z,6.05
2018-03-27T14:48:26.953Z,6.53
2018-03-27T14:50:54.422Z,5.10
2018-03-27T14:53:21.896Z,4.10
2018-03-27T14:55:49.364Z,4.10
2018-03-27T14:58:16.850Z,4.05
2018-03-27T15:00:44.317Z,4.05
2018-03-27T15:03:11.784Z,3.75
2018-03-27T15:05:39.270Z,4.60
2018-03-27T15:08:06.874Z,4.85
2018-03-27T15:10:35.143Z,3.92
2018-03-27T15:13:03.411Z,3.80
2018-03-27T15:15:30.876Z,3.40
2018-03-27T15:17:58.346Z,3.95
2018-03-27T15:20:25.886Z,3.40
2018-03-27T15:22:53.362Z,4.97
2018-03-27T15:25:20.853Z,4.53
2018-03-27T15:27:48.363Z,3.30
2018-03-27T15:30:15.821Z,3.92
2018-03-27T15:32:44.109Z,3.45
2018-03-27T15:35:11.613Z,3.25
2018-03-27T15:37:39.212Z,3.60
2018-03-27T15:40:06.692Z,3.75
2018-03-27T15:42:34.175Z,3.42
2018-03-27T15:45:01.653Z,3.90
2018-03-27T15:47:29.138Z,3.50
2018-03-27T15:49:56.650Z,4.25
2018-03-27T15:52:24.199Z,3.62
2018-03-27T15:54:51.715Z,3.90
2018-03-27T15:57:19.194Z,3.40
2018-03-27T15:59:46.681Z,4.07
2018-03-27T16:02:15.119Z,3.40
2018-03-27T16:04:42.622Z,2.85
2018-03-27T16:07:10.102Z,3.33
2018-03-27T16:09:37.583Z,3.25
2018-03-27T16:12:05.862Z,2.87
2018-03-27T16:14:33.366Z,3.97
2018-03-27T16:17:00.947Z,3.15
2018-03-27T16:19:28.460Z,3.30
2018-03-27T16:21:56.008Z,3.30
2018-03-27T16:24:23.498Z,3.60
2018-03-27T16:26:50.976Z,3.83
2018-03-27T16:29:18.724Z,2.83
2018-03-27T16:31:46.209Z,4.05
2018-03-27T16:34:13.717Z,3.50
2018-03-27T16:36:41.224Z,3.15
2018-03-27T16:39:08.972Z,4.20
2018-03-27T16:41:37.158Z,4.00
2018-03-27T16:44:04.649Z,3.28
2018-03-27T16:46:32.147Z,3.87
2018-03-27T16:48:59.651Z,3.35
2018-03-27T16:51:27.897Z,4.18
2018-03-27T16:53:55.386Z,3.58
2018-03-27T16:56:23.660Z,3.80
2018-03-27T16:58:51.890Z,3.62
2018-03-27T17:01:19.414Z,4.05
2018-03-27T17:03:46.932Z,4.37
2018-03-27T17:06:14.519Z,3.62
2018-03-27T17:08:42.121Z,4.30
2018-03-27T17:11:10.670Z,3.10
2018-03-27T17:13:38.226Z,3.17
2018-03-27T17:16:05.806Z,3.87
2018-03-27T17:18:33.220Z,3.05
2018-03-27T17:21:00.779Z,3.75
2018-03-27T17:23:29.294Z,3.92
2018-03-27T17:25:57.318Z,3.95
2018-03-27T17:28:26.685Z,4.47
2018-03-27T17:30:56.152Z,4.28
2018-03-27T17:33:30.094Z,3.85
2018-03-27T17:35:58.228Z,4.60
2018-03-27T17:38:31.073Z,4.80
2018-03-27T17:41:07.038Z,4.85
2018-03-27T17:43:37.612Z,4.47
2018-03-27T17:46:18.205Z,4.85
2018-03-27T17:48:48.568Z,4.93
2018-03-27T17:51:25.977Z,5.22
2018-03-27T17:56:39.047Z,5.15
2018-03-27T17:59:06.558Z,6.12
2018-03-27T18:01:34.966Z,5.55
2018-03-27T18:04:07.757Z,5.47
2018-03-27T18:06:36.247Z,5.07
2018-03-27T18:09:04.082Z,6.12
2018-03-27T18:14:14.453Z,6.35
2018-03-27T18:16:44.284Z,6.43
2018-03-27T18:19:11.935Z,5.55
2018-03-27T18:21:40.536Z,5.18
2018-03-27T18:24:08.055Z,6.50
2018-03-27T18:26:35.594Z,5.93
2018-03-27T18:29:03.286Z,6.32
2018-03-27T18:31:31.630Z,5.97
2018-03-27T18:33:59.110Z,7.57
2018-03-27T18:36:26.584Z,6.20
2018-03-27T18:38:54.844Z,6.43
2018-03-27T18:41:22.329Z,7.53
2018-03-27T18:43:49.823Z,7.80
2018-03-27T18:46:17.393Z,6.50
2018-03-27T18:48:44.906Z,7.40
2018-03-27T18:51:12.463Z,7.25
2018-03-27T18:53:39.970Z,6.37
2018-03-27T18:56:07.480Z,6.93
2018-03-27T18:58:34.957Z,7.25
2018-03-27T19:01:02.505Z,7.03
2018-03-27T19:03:29.982Z,6.68
2018-03-27T19:05:57.505Z,7.93
2018-03-27T19:08:25.783Z,7.53
2018-03-27T19:10:53.372Z,7.78
2018-03-27T19:13:21.730Z,6.70
2018-03-27T19:15:49.274Z,7.82
2018-03-27T19:18:17.607Z,7.35
2018-03-27T19:20:45.154Z,8.02
2018-03-27T19:23:12.683Z,7.70
2018-03-27T19:25:40.152Z,7.25
2018-03-27T19:28:08.411Z,7.37
2018-03-27T19:30:35.972Z,7.05
2018-03-27T19:33:03.478Z,7.00
2018-03-27T19:35:30.970Z,7.75
2018-03-27T19:37:59.259Z,8.60
2018-03-27T19:40:27.003Z,8.85
2018-03-27T19:42:55.479Z,7.97
2018-03-27T19:45:23.045Z,7.90
2018-03-27T19:47:52.402Z,7.95
2018-03-27T19:50:19.970Z,8.00
2018-03-27T19:52:47.585Z,7.37
2018-03-27T19:55:16.073Z,8.07
2018-03-27T19:57:43.551Z,8.52
2018-03-27T20:00:11.128Z,8.13
2018-03-27T20:02:38.777Z,10.00
2018-03-27T20:05:06.644Z,8.60
2018-03-27T20:07:34.276Z,8.50
2018-03-27T20:10:01.882Z,9.57
2018-03-27T20:12:29.765Z,9.43
2018-03-27T20:14:58.210Z,8.57
2018-03-27T20:17:25.721Z,8.40
2018-03-27T20:19:57.172Z,8.90
2018-03-27T20:22:24.824Z,9.07
2018-03-27T20:24:52.520Z,8.43
2018-03-27T20:27:21.231Z,9.75
2018-03-27T20:29:50.116Z,9.75
2018-03-27T20:32:17.819Z,9.90
2018-03-27T20:34:45.439Z,9.20
2018-03-27T20:37:13.063Z,9.05
2018-03-27T20:39:41.164Z,9.00
2018-03-27T20:42:08.693Z,9.57
2018-03-27T20:44:36.190Z,9.75
2018-03-27T20:47:04.470Z,10.93
2018-03-27T20:49:32.893Z,9.13
2018-03-27T20:52:00.385Z,10.80
2018-03-27T20:54:28.042Z,10.00
2018-03-27T20:56:55.680Z,10.00
2018-03-27T20:59:23.294Z,9.05
2018-03-27T21:01:50.879Z,10.32
2018-03-27T21:04:18.440Z,10.27
2018-03-27T21:06:46.011Z,10.43
2018-03-27T21:09:13.537Z,10.90
2018-03-27T21:11:41.302Z,11.00
2018-03-27T21:14:08.823Z,9.43
2018-03-27T21:16:36.386Z,10.93
2018-03-27T21:19:04.631Z,9.98
2018-03-27T21:21:32.970Z,10.10
2018-03-27T21:24:00.740Z,9.85
2018-03-27T21:26:28.427Z,10.80
2018-03-27T21:28:56.176Z,10.93
2018-03-27T21:31:23.754Z,9.25
2018-03-27T21:33:52.161Z,9.95
2018-03-27T21:36:20.016Z,11.48
2018-03-27T21:38:47.814Z,11.25
2018-03-27T21:41:15.569Z,12.13
2018-03-27T21:43:43.166Z,12.37
2018-03-27T21:46:10.710Z,12.35
2018-03-27T21:48:38.211Z,11.73
2018-03-27T21:51:05.731Z,10.65
2018-03-27T21:53:33.275Z,10.57
2018-03-27T21:56:00.887Z,11.10
2018-03-27T21:58:28.398Z,11.45
2018-03-27T22:00:55.893Z,10.55
2018-03-27T22:03:24.263Z,11.02
2018-03-27T22:05:51.865Z,9.35
2018-03-27T22:08:19.357Z,10.35
2018-03-27T22:10:46.941Z,10.70
2018-03-27T22:13:15.348Z,11.30
2018-03-27T22:15:42.817Z,9.45
2018-03-27T22:18:10.322Z,10.25
2018-03-27T22:20:37.820Z,11.27
2018-03-27T22:23:05.319Z,10.52
2018-03-27T22:25:32.809Z,10.52
2018-03-27T22:28:00.487Z,9.57
2018-03-27T22:30:27.998Z,10.18
2018-03-27T22:32:55.506Z,9.80
2018-03-27T22:35:23.803Z,11.25
2018-03-27T22:37:51.403Z,9.65
2018-03-27T22:40:18.903Z,9.80
2018-03-27T22:42:46.438Z,9.20
2018-03-27T22:45:13.963Z,9.65
2018-03-27T22:47:41.469Z,9.48
2018-03-27T22:50:08.989Z,9.55
2018-03-27T22:52:36.577Z,10.18
2018-03-27T22:55:04.141Z,9.80
2018-03-27T22:57:31.662Z,10.52
2018-03-27T22:59:59.173Z,9.27
2018-03-27T23:02:26.659Z,10.68
2018-03-27T23:04:54.201Z,10.07
2018-03-27T23:07:21.712Z,10.55
2018-03-27T23:09:49.219Z,9.32
2018-03-27T23:12:16.699Z,9.68
2018-03-27T23:14:44.208Z,11.12
2018-03-27T23:17:11.755Z,9.98
2018-03-27T23:19:39.259Z,10.52
2018-03-27T23:22:06.763Z,10.13
2018-03-27T23:24:34.317Z,9.50
2018-03-27T23:27:01.924Z,9.77
2018-03-27T23:29:29.438Z,10.07
2018-03-27T23:31:56.922Z,9.45
2018-03-27T23:34:24.493Z,10.23
2018-03-27T23:36:52.042Z,10.45
2018-03-27T23:39:20.327Z,10.18
2018-03-27T23:41:48.584Z,10.20
2018-03-27T23:44:16.122Z,10.95
2018-03-27T23:46:43.626Z,10.40
2018-03-27T23:49:11.141Z,10.20
2018-03-27T23:51:38.663Z,9.60
2018-03-27T23:54:06.973Z,9.68
2018-03-27T23:56:34.468Z,10.23
2018-03-27T23:59:02.066Z,9.85
